Time;durP1;ratioP1;P1;durP2;ratioP2;P2;SDS_P1;SDS_P2;PMS_P1;PMS_P2;Temp;Humidity;BMP_temperature;BMP_pressure;BME280_temperature;BME280_humidity;BME280_pressure;Samples;Min_cycle;Max_cycle;Signal;HPM_P1;HPM_P2
2023/08/01 00:01:56;;;;;;;6.72;5.18;;;;;;;25.08;56.30;98886.41;5010372;28;20033;-85
2023/08/01 00:04:21;;;;;;;8.80;5.93;;;;;;;25.13;56.25;98887.94;5010564;28;20022;-86
2023/08/01 00:06:47;;;;;;;6.20;4.97;;;;;;;24.95;56.48;98885.53;5009511;28;20026;-86
2023/08/01 00:09:12;;;;;;;6.35;5.32;;;;;;;24.97;56.65;98877.31;5010664;28;20025;-86
2023/08/01 00:11:38;;;;;;;5.78;5.03;;;;;;;24.59;57.77;98874.97;5010515;28;20033;-86
2023/08/01 00:14:03;;;;;;;6.80;4.57;;;;;;;24.51;57.82;98875.16;5013105;28;20044;-86
2023/08/01 00:16:29;;;;;;;5.78;4.53;;;;;;;24.19;58.62;98870.19;5014168;28;20100;-86
2023/08/01 00:18:54;;;;;;;4.82;4.32;;;;;;;24.11;58.10;98875.25;5008982;28;20060;-86
2023/08/01 00:21:19;;;;;;;8.90;5.13;;;;;;;24.24;57.03;98861.09;5015700;28;20088;-87
2023/08/01 00:23:45;;;;;;;7.85;5.72;;;;;;;24.35;56.72;98853.09;5013150;28;20148;-87
2023/08/01 00:26:10;;;;;;;7.78;5.70;;;;;;;24.22;56.80;98857.91;5015315;28;20021;-85
2023/08/01 00:28:36;;;;;;;8.93;7.07;;;;;;;24.31;56.57;98835.22;5015212;28;20080;-87
2023/08/01 00:31:08;;;;;;;10.43;7.25;;;;;;;24.15;57.16;98853.16;5014301;28;20052;-87
2023/08/01 00:33:35;;;;;;;8.85;5.53;;;;;;;24.17;56.95;98853.50;5013592;28;20106;-86
2023/08/01 00:36:00;;;;;;;13.38;5.93;;;;;;;24.08;57.34;98856.16;5014198;28;20087;-86
2023/08/01 00:38:26;;;;;;;8.45;5.55;;;;;;;24.20;57.32;98854.69;5014356;28;20493;-86
2023/08/01 00:40:52;;;;;;;9.48;7.40;;;;;;;24.06;57.50;98847.25;5015363;28;20050;-87
2023/08/01 00:43:17;;;;;;;12.77;8.10;;;;;;;23.95;56.86;98851.09;5013382;28;20451;-86
2023/08/01 00:45:43;;;;;;;16.73;5.93;;;;;;;23.86;57.05;98830.91;5015226;28;20045;-86
2023/08/01 00:48:09;;;;;;;9.90;4.88;;;;;;;23.77;57.04;98839.25;5013059;28;20041;-87
2023/08/01 00:50:35;;;;;;;5.28;4.57;;;;;;;23.65;57.29;98833.00;5013776;28;20021;-86
2023/08/01 00:53:01;;;;;;;15.57;5.80;;;;;;;23.56;58.00;98830.72;5013760;28;20115;-86
2023/08/01 00:55:29;;;;;;;5.82;4.55;;;;;;;23.69;57.69;98830.88;5013834;28;20076;-87
2023/08/01 00:57:54;;;;;;;13.05;5.43;;;;;;;23.87;57.63;98821.09;5026056;28;20552;-86
2023/08/01 01:00:20;;;;;;;6.80;4.70;;;;;;;24.02;57.25;98821.59;4996369;28;20030;-86
2023/08/01 01:02:46;;;;;;;6.35;4.90;;;;;;;24.21;56.55;98817.09;5013766;28;20022;-87
2023/08/01 01:05:13;;;;;;;6.78;5.80;;;;;;;24.31;56.00;98812.34;5013653;28;20036;-86
2023/08/01 01:07:39;;;;;;;5.38;4.45;;;;;;;24.38;55.69;98811.41;5012672;28;20531;-86
2023/08/01 01:10:05;;;;;;;4.68;4.25;;;;;;;24.10;56.14;98787.97;5013594;28;20119;-87
2023/08/01 01:12:30;;;;;;;4.90;4.22;;;;;;;24.18;56.07;98795.13;5014722;28;20029;-86
2023/08/01 01:14:56;;;;;;;5.35;4.28;;;;;;;24.26;55.75;98784.31;5013394;28;20053;-86
2023/08/01 01:17:21;;;;;;;7.07;4.15;;;;;;;24.41;55.38;98776.22;5012138;28;20432;-86
2023/08/01 01:19:47;;;;;;;8.40;6.47;;;;;;;24.50;55.38;98799.25;5012736;28;20029;-86
2023/08/01 01:22:12;;;;;;;13.57;6.53;;;;;;;24.73;55.16;98794.56;5012442;28;20412;-86
2023/08/01 01:24:41;;;;;;;7.43;5.97;;;;;;;24.77;54.58;98791.63;5009863;28;20247;-85
2023/08/01 01:27:08;;;;;;;4.95;4.45;;;;;;;24.67;54.58;98779.22;5011781;28;20416;-86
2023/08/01 01:29:34;;;;;;;6.50;5.13;;;;;;;24.79;54.83;98787.09;5013829;28;20022;-86
2023/08/01 01:32:01;;;;;;;4.70;4.03;;;;;;;24.87;54.64;98796.28;5012504;28;20084;-86
2023/08/01 01:34:28;;;;;;;5.25;4.25;;;;;;;24.87;54.15;98786.91;5012487;28;20413;-86
2023/08/01 01:36:53;;;;;;;5.07;3.97;;;;;;;24.80;54.81;98793.63;5012955;28;20030;-86
2023/08/01 01:39:19;;;;;;;4.70;4.22;;;;;;;24.73;54.94;98788.06;5012723;28;20080;-86
2023/08/01 01:41:44;;;;;;;7.15;4.22;;;;;;;24.80;54.82;98788.69;5012739;28;20091;-85
2023/08/01 01:44:10;;;;;;;7.32;4.40;;;;;;;24.75;54.91;98794.94;5011615;28;20022;-85
2023/08/01 01:46:35;;;;;;;3.90;3.60;;;;;;;24.81;55.06;98789.50;5011156;28;20587;-85
2023/08/01 01:49:01;;;;;;;4.28;3.88;;;;;;;24.77;55.24;98772.44;5010653;28;20389;-86
2023/08/01 01:51:27;;;;;;;4.22;3.83;;;;;;;24.84;55.05;98782.06;5010759;28;20029;-86
2023/08/01 01:53:52;;;;;;;8.15;4.88;;;;;;;24.70;55.28;98783.25;5006238;28;20080;-86
2023/08/01 01:56:18;;;;;;;6.97;4.60;;;;;;;24.70;55.34;98783.25;5012164;28;20018;-85
2023/08/01 01:58:43;;;;;;;7.80;4.68;;;;;;;24.79;55.04;98794.84;5011411;28;20455;-85
2023/08/01 02:01:09;;;;;;;6.38;4.57;;;;;;;24.71;55.51;98791.34;5007448;28;20041;-85
2023/08/01 02:03:35;;;;;;;6.20;4.32;;;;;;;24.64;55.86;98786.63;5010853;28;20088;-85
2023/08/01 02:06:03;;;;;;;8.52;4.82;;;;;;;24.67;56.12;98796.38;5013434;28;20022;-85
2023/08/01 02:08:28;;;;;;;7.18;5.13;;;;;;;24.61;55.76;98801.00;5011934;28;20466;-85
2023/08/01 02:10:55;;;;;;;6.72;4.40;;;;;;;24.35;56.13;98798.81;5012292;28;20037;-86
2023/08/01 02:13:20;;;;;;;7.05;4.65;;;;;;;23.85;56.88;98783.63;5012184;28;20022;-86
2023/08/01 02:15:46;;;;;;;5.72;4.65;;;;;;;23.61;57.56;98797.22;5013522;28;20033;-85
2023/08/01 02:18:11;;;;;;;7.93;4.82;;;;;;;23.55;58.02;98802.66;5011133;28;20095;-86
2023/08/01 02:20:37;;;;;;;8.63;5.25;;;;;;;23.09;59.28;98802.31;5012210;28;20029;-86
2023/08/01 02:23:03;;;;;;;5.47;4.18;;;;;;;23.08;59.68;98807.22;5012831;28;20074;-85
2023/08/01 02:25:28;;;;;;;12.43;5.15;;;;;;;22.86;60.02;98781.97;5012014;28;20107;-86
2023/08/01 02:27:54;;;;;;;7.07;4.55;;;;;;;22.91;60.65;98803.47;5011109;28;20026;-86
2023/08/01 02:30:19;;;;;;;6.30;4.78;;;;;;;22.84;60.55;98810.09;5011795;28;20036;-86
2023/08/01 02:32:45;;;;;;;9.93;5.07;;;;;;;23.00;60.13;98805.72;5010485;28;20096;-85
2023/08/01 02:35:11;;;;;;;5.65;4.80;;;;;;;22.58;61.28;98808.94;5011676;28;20113;-86
2023/08/01 02:37:37;;;;;;;5.03;4.50;;;;;;;22.38;62.08;98812.47;5011153;28;20030;-86
2023/08/01 02:40:07;;;;;;;8.48;4.82;;;;;;;22.12;63.21;98808.44;5010807;28;20099;-86
2023/08/01 02:42:32;;;;;;;;;;;;;;;22.28;63.01;98816.31;5011414;28;20037;-86
2023/08/01 02:44:58;;;;;;;5.10;4.25;;;;;;;22.38;62.76;98805.97;5007869;28;19913;-85
2023/08/01 02:47:23;;;;;;;5.78;4.85;;;;;;;22.49;62.17;98825.78;5012753;28;20049;-86
2023/08/01 02:49:49;;;;;;;10.18;5.30;;;;;;;22.66;61.54;98821.00;5011647;28;20025;-86
2023/08/01 02:52:14;;;;;;;4.97;4.38;;;;;;;22.75;61.42;98824.09;5010083;28;20022;-86
2023/08/01 02:54:40;;;;;;;7.20;5.03;;;;;;;22.97;60.69;98830.22;5011196;28;20021;-85
2023/08/01 02:57:05;;;;;;;9.90;5.15;;;;;;;23.05;60.59;98838.66;5010832;28;20116;-86
2023/08/01 02:59:32;;;;;;;9.23;4.95;;;;;;;23.09;60.45;98836.53;5009569;28;20026;-85
2023/08/01 03:01:59;;;;;;;11.68;5.45;;;;;;;23.25;59.84;98842.34;5014587;28;20029;-86
2023/08/01 03:04:24;;;;;;;5.40;4.75;;;;;;;23.32;59.50;98843.44;5010950;28;20022;-86
2023/08/01 03:06:50;;;;;;;8.07;4.60;;;;;;;23.44;59.28;98842.81;5015566;28;20013;-86
2023/08/01 03:09:15;;;;;;;5.60;5.00;;;;;;;23.62;58.19;98842.44;5011314;28;20038;-87
2023/08/01 03:11:41;;;;;;;9.30;5.22;;;;;;;23.72;57.99;98842.66;5011314;28;20022;-86
2023/08/01 03:14:07;;;;;;;9.55;5.07;;;;;;;23.77;58.12;98840.09;5010812;28;20104;-87
2023/08/01 03:16:32;;;;;;;13.05;5.97;;;;;;;23.59;58.34;98834.75;5012689;28;20128;-86
2023/08/01 03:19:04;;;;;;;14.23;4.88;;;;;;;23.58;58.34;98836.00;5010211;28;20053;-87
2023/08/01 03:21:31;;;;;;;7.47;4.53;;;;;;;23.57;58.34;98840.09;5012729;28;20034;-87
2023/08/01 03:23:57;;;;;;;6.60;4.65;;;;;;;23.31;59.37;98842.66;5011713;28;20509;-85
2023/08/01 03:26:22;;;;;;;10.85;6.20;;;;;;;23.02;60.49;98837.47;5012457;28;20028;-86
2023/08/01 03:28:48;;;;;;;9.27;5.47;;;;;;;22.96;60.50;98839.22;5010617;28;20519;-87
2023/08/01 03:31:13;;;;;;;9.50;5.15;;;;;;;22.85;61.15;98845.91;5012273;28;20018;-86
2023/08/01 03:33:39;;;;;;;10.90;5.57;;;;;;;22.83;60.83;98842.69;5010596;28;20050;-86
2023/08/01 03:36:07;;;;;;;5.13;4.57;;;;;;;22.83;61.21;98842.69;5010782;28;20408;-86
2023/08/01 03:38:33;;;;;;;5.85;4.50;;;;;;;22.56;61.93;98817.94;5011235;28;20026;-86
2023/08/01 03:40:58;;;;;;;8.18;5.72;;;;;;;22.56;62.28;98843.56;5010169;28;20034;-86
2023/08/01 03:43:24;;;;;;;6.03;5.15;;;;;;;22.48;62.81;98844.06;5009196;28;20033;-86
2023/08/01 03:45:50;;;;;;;14.82;5.15;;;;;;;22.42;62.98;98840.91;5009917;28;20416;-85
2023/08/01 03:48:16;;;;;;;16.58;6.38;;;;;;;22.56;62.64;98840.72;5011181;28;20037;-86
2023/08/01 03:50:41;;;;;;;10.20;6.43;;;;;;;22.36;63.16;98837.75;5014581;28;20021;-85
2023/08/01 03:53:07;;;;;;;17.23;5.75;;;;;;;22.28;63.41;98841.97;5014685;28;20500;-86
2023/08/01 03:55:33;;;;;;;9.23;5.22;;;;;;;22.27;63.54;98824.06;5014419;28;20426;-85
2023/08/01 03:57:58;;;;;;;12.65;5.70;;;;;;;22.42;63.60;98838.06;5013862;28;20100;-85
2023/08/01 04:00:24;;;;;;;6.47;4.47;;;;;;;22.21;63.85;98833.50;5014518;28;20507;-86
2023/08/01 04:02:49;;;;;;;8.45;4.70;;;;;;;22.08;64.37;98821.91;5013134;28;20113;-85
2023/08/01 04:05:15;;;;;;;8.25;4.53;;;;;;;22.14;64.36;98840.13;5014509;28;20032;-86
2023/08/01 04:07:41;;;;;;;13.73;5.75;;;;;;;22.03;64.70;98834.59;5013675;28;20105;-85
2023/08/01 04:10:07;;;;;;;8.80;5.28;;;;;;;22.19;64.28;98838.84;5014375;28;20026;-86
2023/08/01 04:12:33;;;;;;;6.18;5.32;;;;;;;22.41;63.45;98848.66;5014370;28;20038;-86
2023/08/01 04:14:59;;;;;;;14.07;7.47;;;;;;;22.67;62.56;98836.88;5014268;28;20026;-86
2023/08/01 04:17:24;;;;;;;14.40;9.13;;;;;;;22.85;62.19;98850.81;5014761;28;20087;-86
2023/08/01 04:19:50;;;;;;;13.27;7.22;;;;;;;23.03;61.56;98852.53;5014237;28;20030;-86
2023/08/01 04:22:16;;;;;;;14.48;5.25;;;;;;;22.97;61.92;98853.03;5013028;28;20033;-86
2023/08/01 04:24:41;;;;;;;23.80;6.75;;;;;;;23.07;61.65;98867.53;5014508;28;20095;-86
2023/08/01 04:27:07;;;;;;;10.73;5.70;;;;;;;23.21;60.87;98860.75;5013278;28;20075;-86
2023/08/01 04:29:32;;;;;;;14.65;6.03;;;;;;;23.32;60.46;98863.41;5014518;28;20032;-87
2023/08/01 04:31:58;;;;;;;19.02;6.65;;;;;;;22.95;61.17;98860.41;5015317;28;20131;-86
2023/08/01 04:34:24;;;;;;;13.35;6.53;;;;;;;22.45;62.50;98865.72;5013705;28;20026;-86
2023/08/01 04:36:49;;;;;;;17.38;6.65;;;;;;;22.46;62.51;98864.47;5013984;28;20389;-86
2023/08/01 04:39:15;;;;;;;12.82;5.53;;;;;;;22.14;63.65;98857.22;5009078;28;20088;-87
2023/08/01 04:41:40;;;;;;;11.15;6.75;;;;;;;22.08;63.88;98839.81;5014583;28;20045;-85
2023/08/01 04:44:06;;;;;;;12.50;6.47;;;;;;;22.32;63.72;98848.41;5013973;28;20030;-87
2023/08/01 04:46:32;;;;;;;8.23;6.53;;;;;;;22.34;63.64;98862.22;5013203;28;20136;-85
2023/08/01 04:48:57;;;;;;;10.60;5.85;;;;;;;22.29;63.99;98858.59;5012053;28;20030;-86
2023/08/01 04:51:23;;;;;;;18.40;6.68;;;;;;;22.41;63.74;98867.78;5012235;28;20045;-84
2023/08/01 04:53:48;;;;;;;16.10;5.20;;;;;;;22.36;63.60;98871.13;5013464;28;20028;-85
2023/08/01 04:56:14;;;;;;;12.05;5.70;;;;;;;22.24;63.89;98856.25;5011089;28;20125;-86
2023/08/01 04:58:39;;;;;;;8.75;5.35;;;;;;;22.23;64.54;98863.19;5005523;28;20018;-82
2023/08/01 05:01:04;;;;;;;9.52;5.85;;;;;;;22.14;64.38;98875.13;5010168;28;20033;-84
2023/08/01 05:03:30;;;;;;;10.27;6.00;;;;;;;22.25;64.48;98865.59;5011543;28;20032;-84
2023/08/01 05:05:55;;;;;;;6.90;4.75;;;;;;;22.30;63.45;98868.75;5012899;28;20500;-84
2023/08/01 05:08:21;;;;;;;9.15;4.72;;;;;;;22.32;63.72;98862.63;5011549;28;20026;-84
2023/08/01 05:10:46;;;;;;;7.18;4.60;;;;;;;22.53;63.06;98874.97;5012758;28;20033;-84
2023/08/01 05:13:12;;;;;;;6.03;5.25;;;;;;;22.60;62.84;98872.00;5012920;28;20048;-84
2023/08/01 05:15:37;;;;;;;6.32;4.10;;;;;;;22.47;62.66;98874.63;5012409;28;20090;-84
2023/08/01 05:18:03;;;;;;;6.15;4.63;;;;;;;22.52;62.61;98871.31;5009709;28;20030;-85
2023/08/01 05:20:30;;;;;;;6.55;4.43;;;;;;;22.66;62.00;98872.31;5000931;28;20284;-84
2023/08/01 05:22:59;;;;;;;5.53;4.45;;;;;;;22.76;61.74;98884.78;5011025;28;20390;-85
2023/08/01 05:25:25;;;;;;;6.82;5.10;;;;;;;22.66;62.06;98880.84;5008374;28;20030;-85
2023/08/01 05:27:50;;;;;;;11.20;4.95;;;;;;;22.76;61.94;98893.34;5008855;28;20404;-85
2023/08/01 05:30:16;;;;;;;4.47;4.07;;;;;;;22.80;61.54;98894.06;5011410;28;20492;-86
2023/08/01 05:32:43;;;;;;;5.97;4.35;;;;;;;22.84;61.71;98886.25;5011417;28;20024;-84
2023/08/01 05:35:09;;;;;;;7.95;4.00;;;;;;;22.68;61.39;98887.75;5011955;28;20064;-83
2023/08/01 05:37:35;;;;;;;5.80;4.20;;;;;;;22.98;60.85;98882.34;5011700;28;20057;-83
2023/08/01 05:40:04;;;;;;;5.35;3.95;;;;;;;23.03;60.49;98884.69;5012550;28;20037;-83
2023/08/01 05:42:30;;;;;;;9.93;4.85;;;;;;;22.98;60.82;98882.34;5010324;28;20113;-83
2023/08/01 05:44:55;;;;;;;10.50;3.97;;;;;;;23.26;59.38;98886.72;5010258;28;20173;-83
2023/08/01 05:47:22;;;;;;;8.45;5.10;;;;;;;23.17;59.55;98871.41;5006133;28;20045;-83
2023/08/01 05:49:48;;;;;;;10.50;4.53;;;;;;;23.42;58.83;98868.94;5009964;28;20468;-84
2023/08/01 05:52:13;;;;;;;5.05;4.55;;;;;;;23.80;57.84;98886.94;5011565;28;20021;-83
2023/08/01 05:54:39;;;;;;;7.22;4.78;;;;;;;24.14;56.99;98879.28;5009822;28;20033;-82
2023/08/01 05:57:05;;;;;;;15.52;4.75;;;;;;;23.97;56.79;98882.88;5011141;28;20034;-83
2023/08/01 05:59:30;;;;;;;7.00;4.40;;;;;;;24.09;56.62;98878.59;5011217;28;20115;-83
2023/08/01 06:01:56;;;;;;;7.13;4.70;;;;;;;24.11;56.09;98886.69;5010677;28;20049;-84
2023/08/01 06:04:22;;;;;;;6.40;4.90;;;;;;;24.13;56.60;98880.53;5010641;28;20053;-84
2023/08/01 06:06:47;;;;;;;6.97;4.13;;;;;;;24.43;55.52;98885.16;5010766;28;20064;-84
2023/08/01 06:09:13;;;;;;;5.25;4.32;;;;;;;24.74;55.41;98887.69;5010379;28;20385;-84
2023/08/01 06:11:38;;;;;;;6.00;4.35;;;;;;;24.62;54.71;98892.03;5010554;28;20021;-84
2023/08/01 06:14:04;;;;;;;6.25;4.28;;;;;;;24.78;54.20;98864.72;5004927;28;20385;-83
2023/08/01 06:16:29;;;;;;;4.90;4.15;;;;;;;24.97;54.02;98877.31;5005466;28;20022;-83
2023/08/01 06:18:56;;;;;;;6.50;4.47;;;;;;;25.01;53.55;98866.59;5009682;28;20084;-83
2023/08/01 06:21:21;;;;;;;8.15;4.30;;;;;;;25.02;52.93;98873.09;5011494;28;20427;-83
2023/08/01 06:23:47;;;;;;;10.50;4.93;;;;;;;25.13;52.86;98872.84;5011551;28;20029;-83
2023/08/01 06:26:12;;;;;;;4.47;4.05;;;;;;;25.04;52.29;98865.69;5010776;28;20029;-83
2023/08/01 06:28:38;;;;;;;30.95;5.38;;;;;;;25.42;52.29;98870.00;5011623;28;20029;-82
2023/08/01 06:31:03;;;;;;;6.25;3.75;;;;;;;25.22;51.57;98867.28;5012423;28;20695;-82
2023/08/01 06:33:28;;;;;;;15.80;4.85;;;;;;;25.36;51.17;98869.75;5004804;28;20405;-82
2023/08/01 06:35:54;;;;;;;4.53;3.53;;;;;;;25.68;48.82;98866.41;5010070;28;20034;-82
2023/08/01 06:38:19;;;;;;;15.00;3.78;;;;;;;25.77;48.93;98864.53;5011284;28;20033;-83
2023/08/01 06:40:45;;;;;;;4.50;3.50;;;;;;;25.83;48.48;98861.91;5010501;28;20029;-82
2023/08/01 06:43:10;;;;;;;3.75;3.38;;;;;;;25.99;48.89;98860.97;5010054;28;20030;-82
2023/08/01 06:45:36;;;;;;;8.18;3.03;;;;;;;26.32;47.44;98849.34;5012805;28;20471;-83
2023/08/01 06:48:01;;;;;;;9.88;3.70;;;;;;;26.29;46.19;98835.13;5007651;28;20036;-81
2023/08/01 06:50:27;;;;;;;9.07;3.03;;;;;;;26.19;45.59;98852.22;5008663;28;20105;-81
2023/08/01 06:52:52;;;;;;;5.75;3.33;;;;;;;26.07;45.89;98850.91;5009027;28;20044;-80
2023/08/01 06:55:18;;;;;;;3.30;3.00;;;;;;;26.39;44.38;98853.25;5006821;28;20705;-80
2023/08/01 06:57:43;;;;;;;5.18;3.53;;;;;;;26.54;44.05;98834.31;5009835;28;20036;-80
2023/08/01 07:00:09;;;;;;;6.28;3.58;;;;;;;26.18;44.95;98850.59;5009952;28;20030;-81
2023/08/01 07:02:35;;;;;;;7.47;4.32;;;;;;;26.37;44.49;98850.84;5010150;28;20109;-81
2023/08/01 07:05:00;;;;;;;4.68;2.85;;;;;;;26.46;43.71;98853.00;5008697;28;20022;-82
2023/08/01 07:07:25;;;;;;;3.58;3.22;;;;;;;26.30;44.34;98839.59;5009931;28;20021;-81
2023/08/01 07:09:51;;;;;;;11.63;3.35;;;;;;;26.57;42.96;98844.84;5009637;28;20026;-81
2023/08/01 07:12:16;;;;;;;7.88;3.38;;;;;;;26.90;42.30;98843.78;5009432;28;20022;-82
2023/08/01 07:14:42;;;;;;;7.13;3.60;;;;;;;27.05;43.13;98842.03;5009847;28;20018;-79
2023/08/01 07:17:08;;;;;;;4.55;3.30;;;;;;;27.30;42.64;98848.94;5008588;28;20393;-80
2023/08/01 07:19:33;;;;;;;4.65;3.05;;;;;;;27.58;40.85;98840.56;5009074;28;20508;-81
2023/08/01 07:21:59;;;;;;;3.72;2.83;;;;;;;27.96;40.46;98841.59;5007050;28;20038;-81
2023/08/01 07:24:24;;;;;;;4.07;2.67;;;;;;;27.86;40.02;98837.84;5005011;28;20025;-80
2023/08/01 07:26:49;;;;;;;4.72;2.80;;;;;;;27.91;39.91;98850.03;5003053;28;20033;-80
2023/08/01 07:29:15;;;;;;;6.07;3.10;;;;;;;28.17;39.65;98842.84;5007935;28;20029;-81
2023/08/01 07:31:42;;;;;;;3.63;3.05;;;;;;;28.05;40.00;98852.34;5005969;28;20028;-80
2023/08/01 07:34:08;;;;;;;3.95;3.13;;;;;;;27.50;39.98;98838.41;5006443;28;20124;-81
2023/08/01 07:36:33;;;;;;;6.80;3.30;;;;;;;27.99;40.02;98842.72;5006476;28;20113;-80
2023/08/01 07:38:59;;;;;;;6.95;2.70;;;;;;;28.50;40.28;98843.63;5004283;28;20044;-80
2023/08/01 07:41:24;;;;;;;11.05;4.03;;;;;;;28.89;39.38;98834.59;5009619;28;20084;-80
2023/08/01 07:43:51;;;;;;;9.32;3.90;;;;;;;28.84;39.54;98836.03;5007418;28;20058;-80
2023/08/01 07:46:16;;;;;;;6.03;3.28;;;;;;;28.90;41.10;98839.88;5004269;28;20073;-81
2023/08/01 07:48:42;;;;;;;5.32;3.35;;;;;;;29.27;40.08;98833.38;5006863;28;20026;-81
2023/08/01 07:51:07;;;;;;;4.13;3.55;;;;;;;29.40;39.98;98836.06;5007204;28;20033;-81
2023/08/01 07:53:36;;;;;;;3.92;3.00;;;;;;;29.62;38.61;98832.25;5006431;28;20113;-81
2023/08/01 07:56:02;;;;;;;5.15;3.00;;;;;;;29.17;38.37;98829.66;5008563;28;20026;-80
2023/08/01 07:58:28;;;;;;;4.00;3.15;;;;;;;29.56;38.77;98826.31;5005730;28;20070;-80
2023/08/01 08:00:53;;;;;;;4.85;3.28;;;;;;;29.79;37.51;98827.72;5000541;28;20743;-80
2023/08/01 08:03:22;;;;;;;10.27;3.38;;;;;;;29.98;38.39;98825.56;5000637;28;20030;-80
2023/08/01 08:05:48;;;;;;;5.00;2.80;;;;;;;30.07;37.09;98821.91;5003012;28;20029;-80
2023/08/01 08:08:13;;;;;;;6.03;3.15;;;;;;;29.92;34.91;98818.06;5006330;28;20408;-81
2023/08/01 08:10:39;;;;;;;4.25;2.30;;;;;;;30.04;34.70;98819.97;5005526;28;20071;-80
2023/08/01 08:13:04;;;;;;;4.03;3.03;;;;;;;29.83;34.86;98824.66;5006770;28;20033;-80
2023/08/01 08:15:33;;;;;;;2.60;2.40;;;;;;;29.65;34.98;98820.56;5007111;28;20471;-81
2023/08/01 08:17:59;;;;;;;2.83;2.55;;;;;;;30.18;34.08;98820.59;4998960;28;20034;-80
2023/08/01 08:20:25;;;;;;;4.78;2.40;;;;;;;30.52;35.20;98809.81;5006808;28;20033;-81
2023/08/01 08:22:50;;;;;;;4.80;2.60;;;;;;;30.92;34.82;98808.66;5006798;28;20547;-81
2023/08/01 08:25:16;;;;;;;3.60;2.20;;;;;;;30.92;34.77;98808.66;5006976;28;20088;-80
2023/08/01 08:27:41;;;;;;;2.60;2.40;;;;;;;30.96;34.76;98802.69;5006396;28;20076;-81
2023/08/01 08:30:07;;;;;;;6.20;3.05;;;;;;;30.90;34.08;98802.56;5015473;28;20040;-82
2023/08/01 08:32:33;;;;;;;3.30;2.22;;;;;;;30.75;34.18;98802.50;5027377;28;20021;-81
2023/08/01 08:34:58;;;;;;;2.92;2.63;;;;;;;30.91;34.37;98795.50;5008651;28;20034;-81
2023/08/01 08:37:24;;;;;;;2.50;2.30;;;;;;;30.91;34.20;98795.50;5010455;28;20021;-81
2023/08/01 08:39:49;;;;;;;3.08;2.30;;;;;;;30.71;32.70;98793.25;5010650;28;20041;-81
2023/08/01 08:42:18;;;;;;;2.78;2.00;;;;;;;31.23;34.57;98798.78;5010261;28;20025;-81
2023/08/01 08:44:47;;;;;;;4.35;2.75;;;;;;;31.29;33.90;98792.34;5009201;28;20030;-82
2023/08/01 08:47:18;;;;;;;2.38;2.17;;;;;;;31.65;33.21;98787.50;5010357;28;20054;-81
2023/08/01 08:49:45;;;;;;;2.60;2.40;;;;;;;31.50;33.17;98785.41;5011760;28;20034;-82
2023/08/01 08:52:11;;;;;;;8.35;3.15;;;;;;;31.57;31.73;98783.41;5009779;28;20512;-82
2023/08/01 08:54:38;;;;;;;3.83;2.03;;;;;;;31.40;32.37;98763.66;5011099;28;20033;-81
2023/08/01 08:57:06;;;;;;;2.92;2.40;;;;;;;31.81;32.50;98777.56;5010396;28;20060;-81
2023/08/01 08:59:33;;;;;;;5.78;2.50;;;;;;;31.65;34.10;98775.94;5009483;28;20057;-81
2023/08/01 09:02:01;;;;;;;2.50;2.30;;;;;;;32.02;32.39;98768.94;5005939;28;20034;-81
2023/08/01 09:04:27;;;;;;;2.58;2.38;;;;;;;32.29;31.97;98764.09;5009049;28;20037;-82
2023/08/01 09:06:56;;;;;;;6.00;2.90;;;;;;;32.29;32.17;98767.78;5009940;28;20113;-81
2023/08/01 09:09:26;;;;;;;3.20;2.60;;;;;;;32.37;32.28;98750.81;5008197;28;20030;-81
2023/08/01 09:11:52;;;;;;;2.55;2.10;;;;;;;32.03;33.29;98753.19;5009972;28;20530;-81
2023/08/01 09:14:19;;;;;;;2.78;2.53;;;;;;;32.28;33.14;98756.69;5008665;28;20138;-81
2023/08/01 09:16:47;;;;;;;2.83;2.60;;;;;;;32.34;34.60;98760.47;5008714;28;20033;-81
2023/08/01 09:19:20;;;;;;;6.28;2.75;;;;;;;32.32;33.32;98746.50;5008561;28;20032;-82
2023/08/01 09:21:47;;;;;;;2.60;2.35;;;;;;;32.32;32.20;98755.19;5010514;28;20066;-81
2023/08/01 09:24:15;;;;;;;7.35;2.58;;;;;;;31.78;33.91;98750.41;5000392;28;20045;-81
2023/08/01 09:26:41;;;;;;;9.15;3.28;;;;;;;32.27;33.04;98750.13;5003595;28;20030;-81
2023/08/01 09:29:07;;;;;;;5.55;2.85;;;;;;;32.57;31.58;98747.16;4997571;28;20021;-82
2023/08/01 09:31:35;;;;;;;2.58;2.20;;;;;;;32.42;31.09;98749.31;5007819;28;20032;-81
2023/08/01 09:34:06;;;;;;;2.95;2.22;;;;;;;32.55;31.18;98746.84;5006821;28;20100;-81
2023/08/01 09:36:32;;;;;;;3.28;2.55;;;;;;;32.53;31.40;98743.69;5005882;28;20034;-82
2023/08/01 09:39:02;;;;;;;2.50;2.30;;;;;;;32.63;31.40;98735.63;5006352;28;20017;-80
2023/08/01 09:41:31;;;;;;;5.85;2.70;;;;;;;33.02;30.92;98734.56;5006079;28;20080;-81
2023/08/01 09:43:57;;;;;;;2.75;2.20;;;;;;;32.73;31.11;98727.63;5010023;28;20040;-81
2023/08/01 09:46:24;;;;;;;2.63;2.38;;;;;;;33.12;30.85;98730.19;5006691;28;20132;-81
2023/08/01 09:48:49;;;;;;;4.97;2.38;;;;;;;33.39;30.39;98731.00;5008463;28;20574;-81
2023/08/01 09:51:18;;;;;;;6.28;2.72;;;;;;;32.28;30.06;98724.88;5000589;28;20042;-81
2023/08/01 09:53:54;;;;;;;2.85;2.65;;;;;;;33.07;31.32;98725.16;5004224;28;20508;-81
2023/08/01 09:56:23;;;;;;;2.83;2.55;;;;;;;33.46;30.15;98723.97;5002704;28;20032;-81
2023/08/01 09:58:50;;;;;;;3.38;2.70;;;;;;;33.66;31.10;98714.41;5009150;28;20026;-80
2023/08/01 10:01:17;;;;;;;3.83;2.90;;;;;;;33.56;29.88;98724.59;5006818;28;20033;-81
2023/08/01 10:03:48;;;;;;;6.43;3.10;;;;;;;33.71;29.25;98722.34;4993848;28;20029;-81
2023/08/01 10:06:22;;;;;;;3.28;2.97;;;;;;;33.64;28.85;98704.66;5004653;28;20051;-81
2023/08/01 10:08:49;;;;;;;6.55;3.35;;;;;;;33.57;29.35;98703.78;5006552;28;20029;-82
2023/08/01 10:11:18;;;;;;;3.13;2.30;;;;;;;33.59;29.00;98715.66;5009517;28;20029;-82
2023/08/01 10:13:45;;;;;;;2.28;2.17;;;;;;;33.47;29.34;98708.97;5009393;28;20404;-81
2023/08/01 10:16:11;;;;;;;3.00;2.70;;;;;;;33.57;29.14;98700.88;5003371;28;20452;-81
2023/08/01 10:18:38;;;;;;;2.70;2.50;;;;;;;33.92;29.07;98695.34;5008447;28;20022;-82
2023/08/01 10:21:11;;;;;;;7.00;2.88;;;;;;;34.14;27.92;98683.13;5009666;28;20458;-82
2023/08/01 10:23:38;;;;;;;3.28;2.63;;;;;;;34.01;29.59;98686.50;5006366;28;20035;-81
2023/08/01 10:26:06;;;;;;;4.05;2.65;;;;;;;34.09;29.16;98681.00;5006192;28;20053;-82
2023/08/01 10:28:36;;;;;;;2.80;2.60;;;;;;;34.14;29.04;98671.53;5008999;28;20484;-82
2023/08/01 10:31:13;;;;;;;7.32;3.10;;;;;;;33.79;27.47;98685.00;5009073;28;20032;-85
2023/08/01 10:33:41;;;;;;;3.15;2.50;;;;;;;34.35;28.78;98677.97;5010776;28;20566;-84
2023/08/01 10:36:23;;;;;;;3.53;2.78;;;;;;;34.28;27.59;98661.06;5015747;28;20109;-84
2023/08/01 10:38:54;;;;;;;3.05;2.40;;;;;;;34.23;28.93;98661.84;5010172;28;20026;-84
2023/08/01 10:41:29;;;;;;;5.00;2.63;;;;;;;34.19;29.17;98653.38;5004453;28;20558;-84
2023/08/01 10:44:24;;;;;;;3.38;2.88;;;;;;;34.47;27.77;98655.59;5008670;28;20087;-84
2023/08/01 10:46:50;;;;;;;3.80;3.38;;;;;;;34.58;28.83;98654.88;5006146;28;20049;-84
2023/08/01 10:49:16;;;;;;;3.65;3.15;;;;;;;34.56;27.52;98640.09;5006140;28;20040;-83
2023/08/01 10:51:43;;;;;;;3.97;2.50;;;;;;;34.82;27.79;98627.50;4997537;28;20114;-84
2023/08/01 10:54:23;;;;;;;4.07;3.67;;;;;;;34.84;27.80;98639.38;5004499;28;20124;-83
2023/08/01 10:56:51;;;;;;;5.50;3.28;;;;;;;35.00;27.26;98635.72;5005983;28;20025;-84
2023/08/01 10:59:17;;;;;;;3.40;2.75;;;;;;;35.03;27.24;98622.28;5007813;28;20018;-82
2023/08/01 11:01:49;;;;;;;8.10;3.15;;;;;;;33.61;29.06;98616.63;5008815;28;20496;-82
2023/08/01 11:04:16;;;;;;;3.35;2.75;;;;;;;34.39;27.87;98622.56;5015806;28;20112;-83
2023/08/01 11:06:50;;;;;;;5.75;3.55;;;;;;;34.67;28.75;98613.22;5006828;28;20032;-83
2023/08/01 11:09:18;;;;;;;3.08;2.78;;;;;;;35.04;27.58;98606.44;5007516;28;20496;-82
2023/08/01 11:11:44;;;;;;;3.28;3.03;;;;;;;35.30;28.09;98605.38;5008237;28;20136;-83
2023/08/01 11:14:12;;;;;;;3.20;2.90;;;;;;;35.10;27.18;98598.50;5008496;28;20022;-82
2023/08/01 11:16:38;;;;;;;2.92;2.72;;;;;;;34.92;26.82;98601.91;5005271;28;20439;-81
2023/08/01 11:19:03;;;;;;;3.60;3.30;;;;;;;34.86;27.51;98587.38;5008726;28;20070;-82
2023/08/01 11:21:29;;;;;;;3.30;3.00;;;;;;;34.96;28.04;98587.91;5008344;28;20105;-81
2023/08/01 11:23:56;;;;;;;3.65;3.25;;;;;;;35.13;27.23;98596.66;5006091;28;20038;-82
2023/08/01 11:26:21;;;;;;;4.18;3.78;;;;;;;34.93;26.99;98595.56;5009786;28;20029;-82
2023/08/01 11:28:47;;;;;;;4.40;3.20;;;;;;;34.92;26.80;98588.16;5004973;28;20014;-82